Time;durP1;ratioP1;P1;durP2;ratioP2;P2;SDS_P1;SDS_P2;PMS_P1;PMS_P2;Temp;Humidity;BMP_temperature;BMP_pressure;BME280_temperature;BME280_humidity;BME280_pressure;Samples;Min_cycle;Max_cycle;Signal;HPM_P1;HPM_P2
2021/04/16 00:00:54;;;;;;;14.63;7.83;;;2.00;99.90;;;;;;5067271;28;20192;-65
2021/04/16 00:03:23;;;;;;;12.53;8.43;;;2.00;99.90;;;;;;5068031;28;20204;-65
2021/04/16 00:05:51;;;;;;;12.67;8.03;;;1.90;99.90;;;;;;5069763;28;20236;-65
2021/04/16 00:08:21;;;;;;;15.63;8.47;;;1.90;99.90;;;;;;5063454;28;20726;-65
2021/04/16 00:10:51;;;;;;;13.87;8.03;;;1.90;99.90;;;;;;5066410;28;20271;-64
2021/04/16 00:13:21;;;;;;;13.67;8.23;;;1.90;99.90;;;;;;5077801;28;20215;-65
2021/04/16 00:15:49;;;;;;;9.90;7.67;;;1.80;99.90;;;;;;5070832;28;20540;-65
2021/04/16 00:18:19;;;;;;;14.87;7.87;;;1.80;99.90;;;;;;5068420;28;20257;-64
2021/04/16 00:20:47;;;;;;;13.13;8.30;;;1.80;99.90;;;;;;5068271;28;20192;-64
2021/04/16 00:23:14;;;;;;;13.70;8.73;;;1.70;99.90;;;;;;5068896;28;20261;-65
2021/04/16 00:25:42;;;;;;;12.83;7.83;;;1.70;99.90;;;;;;5067683;28;20748;-65
2021/04/16 00:28:11;;;;;;;11.07;8.07;;;1.70;99.90;;;;;;5068602;28;20188;-65
2021/04/16 00:30:41;;;;;;;13.10;8.40;;;1.60;99.90;;;;;;5066507;28;21040;-64
2021/04/16 00:33:10;;;;;;;9.83;7.97;;;1.60;99.90;;;;;;5076209;28;20258;-65
2021/04/16 00:35:37;;;;;;;12.57;8.57;;;1.60;99.90;;;;;;5067651;28;20188;-64
2021/04/16 00:38:06;;;;;;;14.27;8.30;;;1.50;99.90;;;;;;5083854;28;20681;-65
2021/04/16 00:40:36;;;;;;;16.80;8.47;;;1.50;99.90;;;;;;5067970;28;20282;-65
2021/04/16 00:43:04;;;;;;;11.93;8.63;;;1.50;99.90;;;;;;5055571;28;20764;-64
2021/04/16 00:45:34;;;;;;;11.23;8.70;;;1.50;99.90;;;;;;5067115;28;20651;-65
2021/04/16 00:48:05;;;;;;;13.37;8.17;;;1.50;99.90;;;;;;5066529;28;20231;-64
2021/04/16 00:50:50;;;;;;;13.83;8.20;;;1.50;99.90;;;;;;5064045;28;20211;-64
2021/04/16 00:53:20;;;;;;;14.27;8.23;;;1.40;99.90;;;;;;5067592;28;20227;-65
2021/04/16 00:55:49;;;;;;;15.13;8.80;;;1.40;99.90;;;;;;5066701;28;20290;-65
2021/04/16 00:58:18;;;;;;;15.10;8.13;;;1.40;99.90;;;;;;5069086;28;20287;-66
2021/04/16 01:00:52;;;;;;;14.53;8.60;;;1.30;99.90;;;;;;5064363;28;20192;-64
2021/04/16 01:03:20;;;;;;;13.37;8.03;;;1.30;99.90;;;;;;5067630;28;20196;-65
2021/04/16 01:05:48;;;;;;;11.73;8.57;;;1.30;99.90;;;;;;5069084;28;20670;-65
2021/04/16 01:08:15;;;;;;;12.33;8.20;;;1.30;99.90;;;;;;5063474;28;20231;-65
2021/04/16 01:10:43;;;;;;;13.37;8.50;;;1.30;99.90;;;;;;5069402;28;20215;-64
2021/04/16 01:13:10;;;;;;;12.93;8.23;;;1.30;99.90;;;;;;5071874;28;20220;-64
2021/04/16 01:15:40;;;;;;;13.50;8.77;;;1.20;99.90;;;;;;5066625;28;20707;-63
2021/04/16 01:18:15;;;;;;;9.27;7.67;;;1.20;99.90;;;;;;5068551;28;20223;-65
2021/04/16 01:20:46;;;;;;;15.83;8.23;;;1.10;99.90;;;;;;5063400;28;20211;-65
2021/04/16 01:23:20;;;;;;;11.40;7.93;;;1.10;99.90;;;;;;5066575;28;20196;-65
2021/04/16 01:25:49;;;;;;;20.63;8.90;;;1.10;99.90;;;;;;5061938;28;20247;-65
2021/04/16 01:28:18;;;;;;;13.07;8.23;;;1.10;99.90;;;;;;5066997;28;20552;-65
2021/04/16 01:30:58;;;;;;;10.03;8.00;;;1.10;99.90;;;;;;5071100;28;20218;-65
2021/04/16 01:33:26;;;;;;;11.33;8.30;;;1.10;99.90;;;;;;5086593;28;20191;-65
2021/04/16 01:35:55;;;;;;;13.63;8.73;;;1.00;99.90;;;;;;5078103;28;20194;-66
2021/04/16 01:38:23;;;;;;;13.53;8.50;;;1.00;99.90;;;;;;5071968;28;20192;-65
2021/04/16 01:40:51;;;;;;;14.70;8.00;;;0.90;99.90;;;;;;5073885;28;20320;-66
2021/04/16 01:43:24;;;;;;;11.57;8.73;;;0.90;99.90;;;;;;5086842;28;20244;-66
2021/04/16 01:46:00;;;;;;;12.77;8.80;;;0.90;99.90;;;;;;5081422;28;20207;-66
2021/04/16 01:48:39;;;;;;;17.90;9.03;;;0.80;99.90;;;;;;5063655;28;20290;-65
2021/04/16 01:51:09;;;;;;;17.77;8.97;;;0.80;99.90;;;;;;5079930;28;20218;-66
2021/04/16 01:53:37;;;;;;;18.93;8.73;;;0.80;99.90;;;;;;5069993;28;20734;-65
2021/04/16 01:56:06;;;;;;;14.00;9.27;;;0.80;99.90;;;;;;5075378;28;20817;-65
2021/04/16 01:58:34;;;;;;;12.57;8.33;;;0.70;99.90;;;;;;5074093;28;20242;-65
2021/04/16 02:01:01;;;;;;;12.83;8.07;;;0.80;99.90;;;;;;5071632;28;20188;-65
2021/04/16 02:03:29;;;;;;;20.90;9.10;;;0.70;99.90;;;;;;5071770;28;20187;-65
2021/04/16 02:05:57;;;;;;;15.60;8.40;;;0.70;99.90;;;;;;5077787;28;20295;-65
2021/04/16 02:08:24;;;;;;;13.87;8.77;;;0.70;99.90;;;;;;5072070;28;20204;-65
2021/04/16 02:10:52;;;;;;;13.40;8.67;;;0.60;99.90;;;;;;5071804;28;20278;-65
2021/04/16 02:13:20;;;;;;;12.60;8.43;;;0.60;99.90;;;;;;5065965;28;20211;-65
2021/04/16 02:15:48;;;;;;;16.27;8.70;;;0.60;99.90;;;;;;5084735;28;20206;-64
2021/04/16 02:18:15;;;;;;;12.83;8.53;;;0.60;99.90;;;;;;5074631;28;20689;-65
2021/04/16 02:20:43;;;;;;;11.20;7.90;;;0.50;99.90;;;;;;5081359;28;20201;-65
2021/04/16 02:23:11;;;;;;;18.13;8.77;;;0.50;99.90;;;;;;5073301;28;20212;-65
2021/04/16 02:25:38;;;;;;;12.33;8.30;;;0.40;99.90;;;;;;5078306;28;20211;-65
2021/04/16 02:28:06;;;;;;;15.90;8.20;;;0.40;99.90;;;;;;5079496;28;20188;-65
2021/04/16 02:30:36;;;;;;;10.83;7.63;;;0.40;99.90;;;;;;5069414;28;20287;-65
2021/04/16 02:33:04;;;;;;;16.97;8.67;;;0.30;99.90;;;;;;5071775;28;20188;-65
2021/04/16 02:35:32;;;;;;;15.33;8.63;;;0.30;99.90;;;;;;5072256;28;20196;-64
2021/04/16 02:37:59;;;;;;;15.33;9.00;;;0.30;99.90;;;;;;5075583;28;20244;-65
2021/04/16 02:40:28;;;;;;;15.77;9.07;;;0.20;99.90;;;;;;5072081;28;20239;-64
2021/04/16 02:42:56;;;;;;;18.00;8.77;;;0.20;99.90;;;;;;5068479;28;20245;-65
2021/04/16 02:45:26;;;;;;;11.03;8.17;;;0.20;99.90;;;;;;5072176;28;20291;-65
2021/04/16 02:47:54;;;;;;;13.23;8.50;;;0.20;99.90;;;;;;5069833;28;20181;-65
2021/04/16 02:50:25;;;;;;;11.03;8.70;;;0.20;99.90;;;;;;5069647;28;20192;-65
2021/04/16 02:52:52;;;;;;;17.30;8.93;;;0.10;99.90;;;;;;5068177;28;20184;-64
2021/04/16 02:55:20;;;;;;;9.10;7.87;;;0.10;99.90;;;;;;5063915;28;20193;-65
2021/04/16 02:57:47;;;;;;;13.40;8.83;;;0.10;99.90;;;;;;5069142;28;20184;-65
2021/04/16 03:00:18;;;;;;;13.03;8.20;;;0.00;99.90;;;;;;5068885;28;20245;-65
2021/04/16 03:02:45;;;;;;;10.70;7.57;;;0.00;99.90;;;;;;5066672;28;20208;-65
2021/04/16 03:05:15;;;;;;;16.47;8.23;;;0.00;99.90;;;;;;5067221;28;20203;-65
2021/04/16 03:07:42;;;;;;;10.00;7.67;;;-0.10;99.90;;;;;;5067862;28;20706;-65
2021/04/16 03:10:13;;;;;;;12.50;8.40;;;-0.10;99.90;;;;;;5073624;28;20751;-65
2021/04/16 03:12:41;;;;;;;9.77;7.87;;;-0.20;99.90;;;;;;5072315;28;20219;-64
2021/04/16 03:15:09;;;;;;;11.83;8.13;;;-0.20;99.90;;;;;;5068838;28;20188;-65
2021/04/16 03:17:37;;;;;;;11.80;8.40;;;-0.20;99.90;;;;;;5080144;28;20278;-65
2021/04/16 03:20:07;;;;;;;11.43;8.30;;;-0.30;99.90;;;;;;5075464;28;20832;-65
2021/04/16 03:22:36;;;;;;;13.00;8.53;;;-0.30;99.90;;;;;;5065165;28;20671;-65
2021/04/16 03:25:04;;;;;;;15.33;8.90;;;-0.30;99.90;;;;;;5073513;28;20196;-65
2021/04/16 03:27:32;;;;;;;16.17;8.03;;;-0.30;99.90;;;;;;5072201;28;20297;-64
2021/04/16 03:29:59;;;;;;;10.60;7.90;;;-0.40;99.90;;;;;;5064089;28;21935;-65
2021/04/16 03:32:28;;;;;;;16.07;8.37;;;-0.40;99.90;;;;;;5071153;28;20256;-64
2021/04/16 03:34:56;;;;;;;10.97;7.77;;;-0.50;99.90;;;;;;5066144;28;20269;-65
2021/04/16 03:37:23;;;;;;;19.10;8.30;;;-0.50;99.90;;;;;;5074513;28;20282;-65
2021/04/16 03:39:52;;;;;;;11.90;8.87;;;-0.50;99.90;;;;;;5071066;28;20184;-65
2021/04/16 03:42:19;;;;;;;11.90;9.03;;;-0.60;99.90;;;;;;5078949;28;20637;-65
2021/04/16 03:44:47;;;;;;;11.53;8.90;;;-0.60;99.90;;;;;;5069490;28;20184;-65
2021/04/16 03:47:16;;;;;;;12.90;8.67;;;-0.60;99.90;;;;;;5068656;28;20208;-65
2021/04/16 03:49:45;;;;;;;17.57;9.80;;;-0.60;99.90;;;;;;5069989;28;20192;-62
2021/04/16 03:52:12;;;;;;;11.57;8.87;;;-0.60;99.90;;;;;;5066975;28;20192;-65
2021/04/16 03:54:40;;;;;;;15.47;8.63;;;-0.60;99.90;;;;;;5066306;28;20273;-65
2021/04/16 03:57:09;;;;;;;13.40;9.07;;;-0.60;99.90;;;;;;5067635;28;20216;-65
2021/04/16 03:59:37;;;;;;;14.30;9.17;;;-0.60;99.90;;;;;;5071696;28;20187;-65
2021/04/16 04:02:04;;;;;;;14.53;8.57;;;-0.60;99.90;;;;;;5069383;28;20743;-64
2021/04/16 04:04:32;;;;;;;14.73;8.67;;;-0.70;99.90;;;;;;5066147;28;20191;-65
2021/04/16 04:06:59;;;;;;;15.27;9.33;;;-0.70;99.90;;;;;;5069562;28;20200;-65
2021/04/16 04:09:26;;;;;;;16.13;9.07;;;-0.70;99.90;;;;;;5066049;28;20196;-65
2021/04/16 04:11:54;;;;;;;11.60;8.73;;;-0.70;99.90;;;;;;5069619;28;20275;-65
2021/04/16 04:14:23;;;;;;;21.03;9.50;;;-0.70;99.90;;;;;;5046012;28;20238;-65
2021/04/16 04:16:53;;;;;;;12.97;9.20;;;-0.60;99.90;;;;;;5044362;28;20623;-65
2021/04/16 04:19:23;;;;;;;13.23;8.97;;;-0.70;99.90;;;;;;5077653;28;20183;-65
2021/04/16 04:21:51;;;;;;;20.23;9.23;;;-0.70;99.90;;;;;;5080962;28;20318;-65
2021/04/16 04:24:19;;;;;;;11.77;8.37;;;-0.80;99.90;;;;;;5067041;28;20728;-65
2021/04/16 04:26:47;;;;;;;14.27;9.10;;;-0.80;99.90;;;;;;5066202;28;20679;-64
2021/04/16 04:29:16;;;;;;;11.37;8.50;;;-0.80;99.90;;;;;;5069283;28;20283;-65
2021/04/16 04:31:47;;;;;;;14.37;9.07;;;-0.80;99.90;;;;;;5069166;28;20195;-64
2021/04/16 04:34:16;;;;;;;17.20;9.20;;;-0.80;99.90;;;;;;5071419;28;20203;-65
2021/04/16 04:36:44;;;;;;;18.83;8.80;;;-0.80;99.90;;;;;;5068479;28;20196;-65
2021/04/16 04:39:12;;;;;;;11.10;7.87;;;-0.80;99.90;;;;;;5065975;28;20199;-64
2021/04/16 04:41:40;;;;;;;16.87;9.00;;;-0.90;99.90;;;;;;5068135;28;20195;-65
2021/04/16 04:44:07;;;;;;;13.10;8.40;;;-0.90;99.90;;;;;;5066538;28;20188;-64
2021/04/16 04:46:35;;;;;;;13.47;8.80;;;-0.90;99.90;;;;;;5072595;28;20313;-64
2021/04/16 04:49:05;;;;;;;16.57;9.00;;;-0.90;99.90;;;;;;5077576;28;20188;-64
2021/04/16 04:51:34;;;;;;;13.53;8.53;;;-0.90;99.90;;;;;;5068070;28;20285;-64
2021/04/16 04:54:01;;;;;;;14.37;10.10;;;-0.90;99.90;;;;;;5066513;28;20216;-64
2021/04/16 04:56:29;;;;;;;19.20;10.60;;;-0.90;99.90;;;;;;5066262;28;20200;-64
2021/04/16 04:58:57;;;;;;;21.50;10.53;;;-0.90;99.90;;;;;;5071126;28;20279;-64
2021/04/16 05:01:24;;;;;;;24.07;12.77;;;-0.80;99.90;;;;;;5067101;28;20216;-64
2021/04/16 05:03:52;;;;;;;21.07;11.37;;;-0.80;99.90;;;;;;5065792;28;20191;-64
2021/04/16 05:06:20;;;;;;;20.10;10.90;;;-0.90;99.90;;;;;;5067803;28;20268;-64
2021/04/16 05:08:48;;;;;;;18.37;10.20;;;-0.90;99.90;;;;;;5064764;28;20573;-64
2021/04/16 05:11:15;;;;;;;16.70;10.30;;;-0.90;99.90;;;;;;5063074;28;20651;-65
2021/04/16 05:13:42;;;;;;;18.93;10.30;;;-0.90;99.90;;;;;;5069174;28;20291;-64
2021/04/16 05:16:10;;;;;;;19.27;10.27;;;-0.90;99.90;;;;;;5060622;28;20227;-64
2021/04/16 05:18:37;;;;;;;14.27;9.53;;;-0.90;99.90;;;;;;5068646;28;20671;-64
2021/04/16 05:21:05;;;;;;;15.73;9.40;;;-0.80;99.90;;;;;;5069424;28;20238;-64
2021/04/16 05:23:33;;;;;;;14.13;9.20;;;-0.80;99.90;;;;;;5063318;28;20250;-64
2021/04/16 05:26:03;;;;;;;18.77;11.47;;;-0.80;99.90;;;;;;5069244;28;20219;-64
2021/04/16 05:28:31;;;;;;;19.93;11.87;;;-0.80;99.90;;;;;;5064546;28;20283;-64
2021/04/16 05:30:58;;;;;;;21.47;12.40;;;-0.70;99.90;;;;;;5067109;28;20590;-64
2021/04/16 05:33:25;;;;;;;18.77;11.97;;;-0.70;99.90;;;;;;5067474;28;20196;-64
2021/04/16 05:35:52;;;;;;;18.87;11.40;;;-0.60;99.90;;;;;;5074568;28;20200;-63
2021/04/16 05:38:20;;;;;;;22.57;11.60;;;-0.50;99.90;;;;;;5069341;28;20265;-64
2021/04/16 05:40:48;;;;;;;14.37;10.30;;;-0.40;99.90;;;;;;5067159;28;20203;-64
2021/04/16 05:43:16;;;;;;;18.07;10.50;;;-0.20;99.90;;;;;;5069621;28;20199;-64
2021/04/16 05:45:43;;;;;;;15.50;9.73;;;0.10;99.90;;;;;;5069044;28;20290;-65
2021/04/16 05:48:11;;;;;;;13.30;10.43;;;0.50;99.90;;;;;;5061779;28;20243;-65
2021/04/16 05:50:38;;;;;;;16.03;9.30;;;0.90;99.90;;;;;;5081743;28;20283;-65
2021/04/16 05:53:05;;;;;;;10.87;8.63;;;1.30;99.90;;;;;;5067875;28;20192;-65
2021/04/16 05:55:33;;;;;;;14.27;7.90;;;1.70;99.90;;;;;;5066041;28;20188;-66
2021/04/16 05:58:01;;;;;;;10.90;7.17;;;2.10;99.90;;;;;;5062876;28;20283;-65
2021/04/16 06:00:28;;;;;;;9.97;6.93;;;2.50;99.90;;;;;;5056663;28;20629;-66
2021/04/16 06:02:56;;;;;;;10.27;6.47;;;2.90;99.90;;;;;;5068144;28;20678;-65
2021/04/16 06:05:23;;;;;;;10.70;6.17;;;3.30;99.90;;;;;;5075460;28;20691;-65
2021/04/16 06:07:54;;;;;;;11.63;6.23;;;3.70;99.90;;;;;;5064587;28;20247;-65
2021/04/16 06:10:23;;;;;;;7.77;6.00;;;4.00;99.90;;;;;;5066592;28;20287;-66
2021/04/16 06:12:51;;;;;;;7.20;6.17;;;4.40;99.90;;;;;;5067131;28;20650;-64
2021/04/16 06:15:26;;;;;;;6.03;5.30;;;4.70;99.90;;;;;;5067290;28;20230;-66
2021/04/16 06:17:57;;;;;;;6.80;5.70;;;5.00;99.90;;;;;;5065548;28;20224;-65
2021/04/16 06:20:26;;;;;;;8.47;5.43;;;5.40;99.90;;;;;;5059528;28;20242;-66
2021/04/16 06:22:56;;;;;;;8.07;5.60;;;5.70;99.90;;;;;;5070981;28;20283;-65
2021/04/16 06:25:25;;;;;;;12.00;5.40;;;5.90;99.90;;;;;;5075677;28;20287;-65
2021/04/16 06:27:54;;;;;;;6.63;5.43;;;6.20;99.90;;;;;;5070988;28;20220;-65
2021/04/16 06:30:23;;;;;;;12.87;5.63;;;6.50;99.90;;;;;;5073761;28;20192;-66
2021/04/16 06:33:01;;;;;;;10.43;5.40;;;6.70;99.90;;;;;;5069217;28;21622;-66
2021/04/16 06:35:28;;;;;;;9.27;5.43;;;6.80;99.90;;;;;;5079918;28;20722;-66
2021/04/16 06:37:56;;;;;;;7.60;5.40;;;7.20;99.90;;;;;;5075696;28;20207;-66
2021/04/16 06:40:24;;;;;;;7.93;6.03;;;7.40;99.90;;;;;;5080078;28;20218;-66
2021/04/16 06:42:51;;;;;;;9.03;6.10;;;7.80;99.90;;;;;;5068392;28;20216;-66
2021/04/16 06:45:25;;;;;;;6.53;5.80;;;7.80;99.90;;;;;;5076715;28;20527;-66
2021/04/16 06:47:56;;;;;;;8.07;5.20;;;8.00;99.90;;;;;;5075224;28;20305;-65
2021/04/16 06:50:26;;;;;;;6.00;5.13;;;8.40;99.90;;;;;;5077092;28;20202;-66
2021/04/16 06:53:00;;;;;;;9.03;5.60;;;8.20;99.90;;;;;;5073593;28;20581;-66
2021/04/16 06:55:31;;;;;;;9.17;5.83;;;8.40;99.90;;;;;;5078852;28;20715;-66
2021/04/16 06:58:04;;;;;;;8.07;4.97;;;8.60;99.90;;;;;;5065862;28;20840;-65
2021/04/16 07:00:42;;;;;;;6.87;5.00;;;9.00;99.90;;;;;;5075762;28;20527;-65
2021/04/16 07:03:17;;;;;;;8.30;5.20;;;9.50;99.90;;;;;;5067254;28;20200;-65
2021/04/16 07:05:51;;;;;;;9.27;4.93;;;9.80;99.90;;;;;;5080801;28;20268;-68
2021/04/16 07:08:26;;;;;;;6.80;5.40;;;10.20;99.90;;;;;;5057334;28;20319;-66
2021/04/16 07:10:54;;;;;;;9.70;5.70;;;10.00;99.90;;;;;;5065716;28;20290;-64
2021/04/16 07:13:35;;;;;;;7.43;5.03;;;10.30;99.90;;;;;;5070800;28;20204;-66
2021/04/16 07:16:04;;;;;;;9.07;5.30;;;10.90;99.90;;;;;;5080472;28;20714;-66
2021/04/16 07:18:38;;;;;;;11.40;5.97;;;11.20;99.90;;;;;;5070213;28;20195;-66
2021/04/16 07:21:08;;;;;;;8.37;5.70;;;11.40;99.90;;;;;;5075811;28;20211;-66
2021/04/16 07:23:44;;;;;;;5.53;5.00;;;11.70;99.90;;;;;;5067123;28;20228;-66
2021/04/16 07:26:39;;;;;;;5.97;5.30;;;11.90;99.90;;;;;;5063050;28;20192;-66
2021/04/16 07:29:08;;;;;;;7.90;5.23;;;10.80;99.90;;;;;;5068327;28;20577;-66
2021/04/16 07:31:47;;;;;;;8.77;4.97;;;11.10;99.90;;;;;;5070141;28;20204;-66
2021/04/16 07:34:31;;;;;;;7.03;5.13;;;11.60;99.90;;;;;;5066515;28;20753;-66
2021/04/16 07:37:10;;;;;;;8.17;5.20;;;11.80;99.90;;;;;;5072698;28;20244;-66
2021/04/16 07:39:45;;;;;;;9.77;5.17;;;12.50;99.90;;;;;;5063974;28;20273;-67
2021/04/16 07:42:20;;;;;;;7.30;4.90;;;12.30;99.90;;;;;;5076534;28;20624;-67
2021/04/16 07:45:03;;;;;;;11.30;5.00;;;12.70;99.90;;;;;;5064650;28;20293;-66
2021/04/16 07:47:34;;;;;;;5.57;4.73;;;13.10;99.90;;;;;;5066237;28;20629;-65
2021/04/16 07:50:07;;;;;;;6.00;4.80;;;13.50;99.90;;;;;;5070737;28;20744;-64
2021/04/16 07:52:36;;;;;;;7.77;4.27;;;13.70;99.90;;;;;;5064500;28;20248;-67
2021/04/16 07:55:18;;;;;;;8.67;4.67;;;13.50;99.90;;;;;;5077636;28;20219;-67
2021/04/16 07:58:00;;;;;;;4.97;4.47;;;13.20;99.90;;;;;;5065052;28;20730;-66
2021/04/16 08:00:31;;;;;;;5.77;4.47;;;13.50;99.90;;;;;;5080008;28;20191;-66
2021/04/16 08:03:19;;;;;;;5.73;4.20;;;14.30;99.90;;;;;;5074450;28;20220;-66
2021/04/16 08:05:50;;;;;;;6.03;4.00;;;14.60;99.90;;;;;;5060800;28;20257;-67
2021/04/16 08:08:27;;;;;;;5.30;4.07;;;15.30;99.90;;;;;;5060555;28;20699;-66
2021/04/16 08:11:10;;;;;;;4.47;4.03;;;15.10;99.90;;;;;;5060973;28;20257;-66
2021/04/16 08:13:52;;;;;;;6.87;4.17;;;14.40;99.90;;;;;;5061660;28;20231;-66
2021/04/16 08:16:21;;;;;;;5.47;4.30;;;14.30;99.90;;;;;;5063896;28;20259;-66
2021/04/16 08:19:21;;;;;;;6.37;4.50;;;14.60;99.90;;;;;;5068565;28;20188;-66
2021/04/16 08:21:50;;;;;;;7.57;4.77;;;14.40;99.90;;;;;;5059200;28;20220;-66
2021/04/16 08:24:26;;;;;;;5.87;3.90;;;14.70;99.90;;;;;;5065768;28;20264;-67
2021/04/16 08:27:04;;;;;;;7.33;4.40;;;15.30;99.90;;;;;;5063244;28;20207;-66
2021/04/16 08:29:37;;;;;;;4.97;4.43;;;15.90;99.90;;;;;;5064532;28;20284;-66
2021/04/16 08:32:09;;;;;;;5.27;3.93;;;16.30;99.90;;;;;;5065302;28;20192;-66
2021/04/16 08:34:42;;;;;;;6.47;3.87;;;16.40;99.20;;;;;;5065667;28;20188;-66
2021/04/16 08:37:16;;;;;;;7.30;4.10;;;15.80;99.70;;;;;;5058830;28;20685;-67
2021/04/16 08:39:45;;;;;;;4.67;3.93;;;16.20;99.90;;;;;;5065572;28;20196;-66
2021/04/16 08:42:15;;;;;;;4.03;3.73;;;16.90;99.90;;;;;;5077244;28;20187;-67
2021/04/16 08:44:46;;;;;;;4.07;3.30;;;17.20;99.40;;;;;;5076508;28;20215;-67
2021/04/16 08:47:23;;;;;;;4.20;3.60;;;17.70;99.20;;;;;;5069175;28;21198;-66
2021/04/16 08:49:54;;;;;;;4.87;3.60;;;18.00;97.40;;;;;;5066825;28;20202;-67
2021/04/16 08:52:29;;;;;;;4.50;3.47;;;18.10;97.90;;;;;;5073000;28;20667;-67
2021/04/16 08:55:12;;;;;;;6.23;3.40;;;17.10;97.10;;;;;;5054467;28;20322;-65
2021/04/16 08:57:51;;;;;;;4.67;3.67;;;17.00;96.40;;;;;;5066167;28;20220;-66
2021/04/16 09:00:20;;;;;;;4.27;3.87;;;15.80;96.30;;;;;;5063635;28;20241;-66
2021/04/16 09:02:51;;;;;;;4.43;3.40;;;15.40;97.60;;;;;;5063642;28;20188;-66
2021/04/16 09:05:24;;;;;;;4.60;3.40;;;15.90;98.20;;;;;;5066052;28;20200;-66
2021/04/16 09:08:23;;;;;;;3.00;2.80;;;17.00;96.50;;;;;;5062510;28;20230;-66
2021/04/16 09:10:52;;;;;;;7.77;3.07;;;16.90;94.90;;;;;;5064060;28;20192;-66
2021/04/16 09:13:57;;;;;;;3.00;2.80;;;16.00;93.80;;;;;;5067351;28;20192;-66
2021/04/16 09:16:52;;;;;;;3.23;2.93;;;15.70;94.50;;;;;;5067601;28;20235;-66
2021/04/16 09:20:08;;;;;;;2.97;2.80;;;16.00;93.90;;;;;;5058834;28;20299;-66
2021/04/16 09:22:44;;;;;;;3.63;3.30;;;15.20;93.90;;;;;;5063076;28;20242;-66
2021/04/16 09:25:47;;;;;;;4.50;3.30;;;14.40;94.70;;;;;;5059185;28;20200;-65
2021/04/16 09:28:47;;;;;;;4.27;3.87;;;14.30;95.50;;;;;;5065547;28;20303;-66
2021/04/16 09:32:04;;;;;;;3.60;3.20;;;15.10;95.00;;;;;;5064544;28;20188;-66
2021/04/16 09:34:50;;;;;;;3.47;3.17;;;16.00;94.60;;;;;;5066308;28;20302;-66
2021/04/16 09:37:30;;;;;;;5.00;3.47;;;16.40;93.90;;;;;;5061692;28;20267;-67
2021/04/16 09:40:11;;;;;;;3.40;3.10;;;16.50;95.20;;;;;;5064731;28;20233;-67
2021/04/16 09:42:41;;;;;;;3.27;3.07;;;16.60;93.90;;;;;;5051435;28;20265;-65
2021/04/16 09:45:13;;;;;;;4.53;3.43;;;15.40;93.90;;;;;;5066031;28;20430;-64
2021/04/16 09:47:50;;;;;;;3.40;3.10;;;13.70;94.50;;;;;;5083751;28;20216;-65
2021/04/16 09:50:34;;;;;;;4.33;3.33;;;13.30;95.00;;;;;;5068703;28;20188;-65
2021/04/16 09:53:24;;;;;;;3.70;3.10;;;13.40;95.60;;;;;;5063338;28;20801;-65
2021/04/16 09:56:12;;;;;;;3.83;3.10;;;14.10;97.40;;;;;;5069384;28;20249;-64
2021/04/16 09:59:03;;;;;;;3.17;2.87;;;14.40;95.20;;;;;;5069520;28;20188;-65
2021/04/16 10:01:31;;;;;;;3.33;3.13;;;14.80;95.50;;;;;;5069936;28;20188;-65
2021/04/16 10:04:01;;;;;;;3.23;3.07;;;15.70;95.40;;;;;;5061584;28;20247;-65
2021/04/16 10:06:38;;;;;;;3.23;3.03;;;16.30;92.60;;;;;;5068602;28;20197;-65
2021/04/16 10:09:27;;;;;;;3.30;3.00;;;14.90;93.00;;;;;;5070048;28;20813;-64
2021/04/16 10:11:58;;;;;;;3.37;3.07;;;14.30;93.50;;;;;;5068716;28;20229;-64
2021/04/16 10:14:32;;;;;;;3.37;3.10;;;15.00;93.90;;;;;;5070568;28;20781;-64
2021/04/16 10:17:02;;;;;;;3.30;3.10;;;15.10;93.10;;;;;;5075217;28;20768;-65
2021/04/16 10:19:32;;;;;;;3.93;3.20;;;13.70;93.50;;;;;;5081053;28;20184;-64
2021/04/16 10:22:09;;;;;;;5.80;3.20;;;13.00;93.50;;;;;;5070765;28;20839;-64
2021/04/16 12:38:34;;;;;;;3.33;3.07;;;16.10;86.40;;;;;;5063460;28;20192;-63
2021/04/16 12:41:05;;;;;;;4.00;3.60;;;16.00;87.30;;;;;;5068850;28;20187;-64
2021/04/16 12:43:35;;;;;;;5.20;3.17;;;16.50;90.20;;;;;;5068367;28;20200;-64
2021/04/16 12:46:06;;;;;;;3.63;3.33;;;16.80;91.40;;;;;;5069524;28;20279;-63
2021/04/16 12:48:34;;;;;;;4.10;3.40;;;16.60;85.10;;;;;;5071616;28;20214;-63
2021/04/16 12:51:02;;;;;;;3.73;3.50;;;15.40;88.20;;;;;;5079236;28;20188;-64
2021/04/16 12:53:31;;;;;;;6.17;3.57;;;15.40;85.30;;;;;;5069303;28;20251;-64
2021/04/16 12:55:59;;;;;;;3.43;3.13;;;15.60;87.10;;;;;;5069352;28;20223;-63
2021/04/16 12:58:30;;;;;;;4.07;3.27;;;15.60;86.80;;;;;;5069404;28;20725;-63
2021/04/16 13:01:02;;;;;;;3.53;3.37;;;15.20;90.90;;;;;;5067532;28;20200;-64
2021/04/16 13:03:33;;;;;;;7.17;3.93;;;14.90;89.00;;;;;;5068757;28;20208;-63
2021/04/16 13:06:22;;;;;;;4.10;3.70;;;14.60;90.40;;;;;;5068036;28;20203;-64
2021/04/16 13:08:50;;;;;;;3.70;3.40;;;14.80;90.00;;;;;;5077075;28;20235;-64
2021/04/16 13:11:18;;;;;;;3.50;3.20;;;14.00;89.50;;;;;;5084793;28;20286;-64
2021/04/16 13:13:51;;;;;;;3.70;3.50;;;14.10;91.10;;;;;;5057496;28;20680;-64
2021/04/16 13:16:19;;;;;;;3.93;3.60;;;14.00;88.50;;;;;;5067460;28;20278;-64
2021/04/16 13:18:49;;;;;;;3.63;3.40;;;13.90;91.00;;;;;;5069237;28;20192;-64
2021/04/16 13:21:23;;;;;;;4.10;3.70;;;14.00;89.70;;;;;;5088974;28;20198;-64
2021/04/16 13:23:51;;;;;;;3.87;3.67;;;14.10;91.40;;;;;;5071679;28;20685;-63
2021/04/16 13:26:19;;;;;;;4.20;3.90;;;14.20;91.00;;;;;;5068775;28;20254;-64
2021/04/16 13:28:46;;;;;;;3.73;3.53;;;14.20;90.10;;;;;;5069416;28;20635;-64
2021/04/16 13:31:14;;;;;;;4.43;3.73;;;14.30;91.70;;;;;;5069016;28;20296;-64
2021/04/16 13:33:45;;;;;;;3.83;3.53;;;14.40;92.00;;;;;;5067287;28;20203;-64
2021/04/16 13:36:15;;;;;;;3.60;3.30;;;14.50;90.10;;;;;;5076782;28;20710;-64
2021/04/16 13:38:43;;;;;;;3.70;3.40;;;14.40;90.10;;;;;;5079269;28;20192;-64
2021/04/16 13:41:10;;;;;;;3.30;3.10;;;14.30;90.50;;;;;;5068752;28;20196;-63
2021/04/16 13:43:38;;;;;;;4.20;3.27;;;14.10;91.60;;;;;;5066898;28;20205;-64
2021/04/16 13:46:08;;;;;;;2.90;2.70;;;14.20;91.90;;;;;;5068958;28;20228;-65
2021/04/16 13:48:37;;;;;;;4.23;3.73;;;14.20;90.90;;;;;;5067658;28;20269;-64
2021/04/16 13:51:06;;;;;;;3.33;3.23;;;13.50;88.30;;;;;;5079275;28;20647;-64
2021/04/16 13:53:33;;;;;;;4.07;3.77;;;13.30;89.10;;;;;;5086538;28;20198;-64
2021/04/16 13:56:02;;;;;;;3.87;3.40;;;13.50;91.70;;;;;;5070537;28;20234;-65
2021/04/16 13:58:29;;;;;;;5.07;3.50;;;13.50;89.70;;;;;;5068765;28;20279;-64
2021/04/16 14:00:57;;;;;;;6.80;3.37;;;13.20;90.70;;;;;;5067624;28;20220;-64
2021/04/16 14:03:27;;;;;;;3.37;3.17;;;13.20;90.40;;;;;;5073804;28;20198;-64
2021/04/16 14:05:57;;;;;;;3.83;3.53;;;13.20;90.20;;;;;;5070285;28;20268;-64
2021/04/16 14:08:30;;;;;;;3.60;3.40;;;13.30;90.40;;;;;;5067729;28;20219;-65
2021/04/16 14:10:57;;;;;;;4.63;4.07;;;13.20;90.40;;;;;;5061362;28;20207;-64
2021/04/16 14:13:27;;;;;;;5.60;3.70;;;13.60;92.90;;;;;;5054991;28;20181;-64
2021/04/16 14:15:56;;;;;;;4.63;4.13;;;13.80;93.30;;;;;;5060502;28;20240;-64
2021/04/16 14:18:30;;;;;;;5.03;3.60;;;13.90;91.20;;;;;;5065343;28;20253;-64
2021/04/16 14:20:58;;;;;;;4.07;3.23;;;14.00;91.30;;;;;;5062433;28;20200;-64
2021/04/16 14:23:27;;;;;;;3.77;3.57;;;14.10;92.60;;;;;;5060262;28;20255;-65
2021/04/16 14:25:54;;;;;;;4.23;3.73;;;14.00;90.10;;;;;;5063021;28;20592;-64
2021/04/16 14:28:23;;;;;;;4.40;4.00;;;13.40;90.70;;;;;;5059048;28;20266;-64
2021/04/16 14:30:52;;;;;;;8.23;4.10;;;13.20;91.90;;;;;;5057432;28;20556;-64
2021/04/16 14:33:23;;;;;;;3.57;3.37;;;13.30;91.40;;;;;;5058663;28;20200;-64
2021/04/16 14:35:53;;;;;;;4.13;3.87;;;13.30;91.40;;;;;;5059501;28;20234;-64
2021/04/16 14:38:22;;;;;;;4.53;3.50;;;13.30;93.40;;;;;;5058235;28;20196;-64
2021/04/16 14:40:50;;;;;;;4.13;3.43;;;13.40;92.40;;;;;;5063942;28;20192;-64
2021/04/16 14:43:18;;;;;;;4.73;4.00;;;13.20;90.50;;;;;;5059331;28;20204;-64
2021/04/16 14:45:48;;;;;;;7.00;3.87;;;13.30;91.20;;;;;;5068537;28;20267;-64
2021/04/16 14:48:17;;;;;;;5.57;3.60;;;13.30;92.90;;;;;;5061350;28;20209;-64
2021/04/16 14:50:44;;;;;;;4.13;3.77;;;13.50;92.80;;;;;;5069528;28;20566;-64
2021/04/16 14:53:17;;;;;;;4.53;4.13;;;13.70;92.40;;;;;;5068837;28;20200;-64
2021/04/16 14:55:44;;;;;;;4.40;3.83;;;13.80;92.30;;;;;;5072859;28;20216;-64
2021/04/16 14:58:22;;;;;;;4.00;3.60;;;13.70;91.20;;;;;;5068707;28;20239;-64
2021/04/16 15:00:49;;;;;;;5.20;3.77;;;13.50;93.00;;;;;;5067956;28;20221;-65
2021/04/16 15:03:16;;;;;;;4.07;3.60;;;13.60;92.10;;;;;;5068672;28;20180;-64
2021/04/16 15:05:44;;;;;;;4.60;4.20;;;13.40;92.30;;;;;;5070121;28;20195;-65
2021/04/16 15:08:14;;;;;;;4.10;3.70;;;13.30;92.20;;;;;;5068656;28;20291;-64
2021/04/16 15:10:46;;;;;;;5.60;4.67;;;13.30;93.00;;;;;;5071443;28;20191;-64
2021/04/16 15:13:21;;;;;;;5.77;4.83;;;13.40;93.70;;;;;;5067392;28;20220;-64
2021/04/16 15:15:49;;;;;;;4.73;4.33;;;13.50;93.20;;;;;;5075896;28;20727;-65
2021/04/16 15:18:17;;;;;;;4.80;4.27;;;13.70;93.30;;;;;;5069427;28;20297;-65
2021/04/16 15:20:47;;;;;;;4.70;4.23;;;14.40;94.40;;;;;;5077878;28;20294;-64